Time;durP1;ratioP1;P1;durP2;ratioP2;P2;SDS_P1;SDS_P2;PMS_P1;PMS_P2;Temp;Humidity;BMP_temperature;BMP_pressure;BME280_temperature;BME280_humidity;BME280_pressure;Samples;Min_cycle;Max_cycle;Signal;HPM_P1;HPM_P2
2022/11/29 00:01:29;;;;;;;4.70;4.40;;;;;;;7.88;100.00;100030.09;5057305;28;20489;-55
2022/11/29 00:03:56;;;;;;;8.33;4.30;;;;;;;7.88;100.00;100027.44;5062235;28;20455;-55
2022/11/29 00:06:26;;;;;;;4.80;4.43;;;;;;;7.92;100.00;100028.25;5061113;28;20457;-55
2022/11/29 00:08:58;;;;;;;4.73;4.10;;;;;;;7.81;100.00;100025.84;5049957;28;20949;-55
2022/11/29 00:14:18;;;;;;;7.57;5.40;;;;;;;7.84;100.00;100027.56;5064452;28;20465;-55
2022/11/29 00:16:57;;;;;;;7.27;3.63;;;;;;;7.93;100.00;100027.34;5055384;28;20463;-55
2022/11/29 00:19:24;;;;;;;6.20;5.50;;;;;;;7.81;100.00;100030.25;5059844;28;20489;-55
2022/11/29 00:21:50;;;;;;;13.80;5.30;;;;;;;7.76;100.00;100024.19;5060139;28;20507;-55
2022/11/29 00:24:18;;;;;;;5.33;4.83;;;;;;;8.00;100.00;100023.66;5056796;28;20474;-55
2022/11/29 00:26:44;;;;;;;8.70;5.90;;;;;;;7.84;100.00;100025.78;5061098;28;20450;-55
2022/11/29 00:29:11;;;;;;;7.57;5.23;;;;;;;7.92;100.00;100022.94;5063587;28;20446;-55
2022/11/29 00:31:38;;;;;;;5.47;4.50;;;;;;;7.87;100.00;100022.19;5050304;28;20450;-55
2022/11/29 00:34:06;;;;;;;5.43;4.37;;;;;;;7.70;100.00;100027.84;5063106;28;20470;-55
2022/11/29 00:36:33;;;;;;;3.90;3.60;;;;;;;7.68;100.00;100025.25;5060012;28;20449;-55
2022/11/29 00:39:00;;;;;;;4.87;4.47;;;;;;;7.65;100.00;100024.41;5056885;28;20559;-55
2022/11/29 00:41:27;;;;;;;7.63;4.83;;;;;;;7.68;100.00;100027.91;5060191;28;20459;-55
2022/11/29 00:43:54;;;;;;;7.63;3.30;;;;;;;7.84;100.00;100027.56;5062972;28;20962;-55
2022/11/29 00:46:20;;;;;;;3.23;3.07;;;;;;;7.98;100.00;100030.78;5050048;28;20829;-55
2022/11/29 00:48:47;;;;;;;4.20;3.80;;;;;;;7.86;100.00;100026.63;5052972;28;20825;-55
2022/11/29 00:51:13;;;;;;;10.93;5.63;;;;;;;7.77;100.00;100033.88;5059831;28;20521;-55
2022/11/29 00:53:40;;;;;;;9.13;5.40;;;;;;;7.72;100.00;100028.69;5063356;28;20460;-55
2022/11/29 00:56:06;;;;;;;10.40;4.60;;;;;;;7.76;100.00;100027.72;5038411;28;20521;-55
2022/11/29 00:58:35;;;;;;;7.80;4.57;;;;;;;7.69;100.00;100031.41;5060993;28;21066;-55
2022/11/29 01:01:02;;;;;;;3.63;3.40;;;;;;;7.67;100.00;100026.13;5059377;28;20500;-55
2022/11/29 01:03:29;;;;;;;3.40;3.17;;;;;;;7.70;100.00;100035.78;5063205;28;20451;-55
2022/11/29 01:06:14;;;;;;;6.07;5.60;;;;;;;7.66;100.00;100040.25;5060791;28;20473;-55
2022/11/29 01:08:41;;;;;;;6.57;6.20;;;;;;;7.63;100.00;100040.31;5061302;28;20453;-55
2022/11/29 01:11:11;;;;;;;7.93;5.27;;;;;;;7.67;100.00;100033.19;5062581;28;20461;-57
2022/11/29 01:13:39;;;;;;;5.17;4.67;;;;;;;7.69;100.00;100044.63;5058131;28;20816;-55
2022/11/29 01:16:06;;;;;;;4.93;4.50;;;;;;;7.68;100.00;100049.06;5053613;28;20481;-55
2022/11/29 01:18:32;;;;;;;6.83;5.20;;;;;;;7.62;100.00;100043.00;5058304;28;20488;-55
2022/11/29 01:21:04;;;;;;;3.60;3.00;;;;;;;7.61;100.00;100047.41;5066887;28;20453;-55
2022/11/29 01:23:31;;;;;;;4.53;4.30;;;;;;;7.56;100.00;100046.66;5049512;28;20451;-55
2022/11/29 01:26:01;;;;;;;15.73;4.87;;;;;;;7.60;100.00;100044.81;5053027;28;20485;-55
2022/11/29 01:28:28;;;;;;;6.70;3.73;;;;;;;7.68;100.00;100057.00;5059117;28;20450;-55
2022/11/29 01:30:55;;;;;;;5.43;3.27;;;;;;;7.55;100.00;100057.28;5062848;28;21110;-55
2022/11/29 01:33:22;;;;;;;4.50;4.10;;;;;;;7.57;100.00;100060.75;5060052;28;20454;-55
2022/11/29 01:35:53;;;;;;;4.27;3.87;;;;;;;7.61;100.00;100059.78;5051398;28;20486;-55
2022/11/29 01:38:20;;;;;;;3.87;3.63;;;;;;;7.65;100.00;100059.69;5060777;28;20457;-55
2022/11/29 01:41:02;;;;;;;8.00;6.10;;;;;;;7.67;100.00;100064.94;5055632;28;20446;-55
2022/11/29 01:43:30;;;;;;;9.00;5.50;;;;;;;7.57;100.00;100058.97;5053564;28;20443;-55
2022/11/29 01:45:56;;;;;;;7.40;4.63;;;;;;;7.54;100.00;100063.44;5056416;28;20481;-55
2022/11/29 01:48:30;;;;;;;5.73;5.23;;;;;;;7.81;100.00;100062.91;5055687;28;20538;-55
2022/11/29 01:51:00;;;;;;;4.50;4.10;;;;;;;7.85;100.00;100063.69;5060789;28;20994;-55
2022/11/29 01:53:27;;;;;;;5.27;4.97;;;;;;;7.71;100.00;100066.63;5064398;28;20637;-55
2022/11/29 01:55:59;;;;;;;4.90;4.57;;;;;;;7.81;100.00;100060.25;5049826;28;20873;-55
2022/11/29 01:58:26;;;;;;;9.63;6.33;;;;;;;7.93;100.00;100064.38;5050625;28;20875;-55
2022/11/29 02:00:53;;;;;;;6.17;5.63;;;;;;;7.70;100.00;100067.53;5058027;28;20451;-55
2022/11/29 02:03:19;;;;;;;10.17;5.37;;;;;;;7.64;100.00;100070.28;5062270;28;20609;-55
2022/11/29 02:05:50;;;;;;;5.67;5.27;;;;;;;7.57;100.00;100058.97;5058808;28;20478;-55
2022/11/29 02:08:30;;;;;;;12.37;4.80;;;;;;;7.53;100.00;100064.34;5048857;28;20513;-55
2022/11/29 02:11:18;;;;;;;6.40;5.90;;;;;;;7.47;100.00;100062.69;5061469;28;20453;-55
2022/11/29 02:14:13;;;;;;;9.60;4.97;;;;;;;7.65;100.00;100066.75;5048875;28;20496;-57
2022/11/29 02:17:02;;;;;;;4.73;4.10;;;;;;;7.63;100.00;100058.84;5061365;28;20459;-55
2022/11/29 02:19:58;;;;;;;5.00;3.37;;;;;;;7.56;100.00;100064.31;5062133;28;20525;-55
2022/11/29 02:22:56;;;;;;;2.93;2.73;;;;;;;7.63;100.00;100069.41;5063174;28;20453;-55
2022/11/29 02:25:55;;;;;;;6.17;3.93;;;;;;;7.61;100.00;100068.59;5049645;28;20478;-56
2022/11/29 02:28:52;;;;;;;4.03;3.73;;;;;;;7.59;100.00;100069.53;5059262;28;20446;-55
2022/11/29 02:31:46;;;;;;;17.50;5.37;;;;;;;7.44;100.00;100068.06;5063909;28;20451;-56
2022/11/29 02:34:35;;;;;;;4.83;4.33;;;;;;;7.49;100.00;100071.47;5054396;28;20954;-56
2022/11/29 02:37:15;;;;;;;6.10;3.53;;;;;;;7.50;100.00;100064.41;5058695;28;20459;-56
2022/11/29 02:39:56;;;;;;;4.90;4.37;;;;;;;7.45;100.00;100061.88;5062575;28;20490;-55
2022/11/29 02:42:31;;;;;;;6.67;5.20;;;;;;;7.42;100.00;100065.44;5065553;28;20829;-56
2022/11/29 02:45:21;;;;;;;5.50;5.10;;;;;;;7.40;100.00;100064.59;5064857;28;20530;-55
2022/11/29 02:48:15;;;;;;;3.50;3.20;;;;;;;7.41;100.00;100069.00;5062142;28;21020;-55
2022/11/29 02:51:10;;;;;;;3.17;2.87;;;;;;;7.41;100.00;100070.75;5046027;28;20450;-55
2022/11/29 02:54:03;;;;;;;3.23;2.97;;;;;;;7.31;100.00;100067.41;5058264;28;20446;-56
2022/11/29 02:56:43;;;;;;;3.53;3.20;;;;;;;7.36;100.00;100069.97;5058280;28;20453;-56
2022/11/29 02:59:15;;;;;;;2.70;2.50;;;;;;;7.37;100.00;100077.84;5061953;28;20497;-56
2022/11/29 03:01:53;;;;;;;4.53;3.40;;;;;;;7.33;100.00;100068.25;5065213;28;20959;-55
2022/11/29 03:04:44;;;;;;;3.10;3.00;;;;;;;7.31;100.00;100071.84;5059044;28;20493;-55
2022/11/29 03:07:35;;;;;;;5.20;4.90;;;;;;;7.36;100.00;100077.91;5050589;28;20459;-56
2022/11/29 03:10:13;;;;;;;5.33;4.27;;;;;;;7.31;100.00;100071.84;5057897;28;20503;-56
2022/11/29 03:12:45;;;;;;;2.83;2.73;;;;;;;7.22;100.00;100074.63;5058119;28;20477;-56
2022/11/29 03:15:31;;;;;;;4.30;2.80;;;;;;;7.34;100.00;100077.06;5063181;28;20471;-56
2022/11/29 03:18:33;;;;;;;6.43;4.80;;;;;;;7.38;100.00;100082.25;5064782;28;20455;-56
2022/11/29 03:21:21;;;;;;;4.73;4.43;;;;;;;7.32;100.00;100077.09;5064581;28;20517;-56
2022/11/29 03:23:52;;;;;;;2.90;2.70;;;;;;;7.33;100.00;100078.81;5064123;28;20453;-56
2022/11/29 03:26:39;;;;;;;4.43;3.60;;;;;;;7.46;100.00;100075.94;5045068;28;20449;-56
2022/11/29 03:29:28;;;;;;;4.90;3.67;;;;;;;7.94;100.00;100088.16;5057946;28;20519;-56
2022/11/29 03:32:21;;;;;;;6.23;5.63;;;;;;;7.68;100.00;100095.81;5058569;28;20459;-56
2022/11/29 03:35:09;;;;;;;5.63;4.10;;;;;;;7.56;100.00;100085.47;5050959;28;20512;-56
2022/11/29 03:37:59;;;;;;;4.30;3.90;;;;;;;7.48;100.00;100088.25;5057543;28;20461;-56
2022/11/29 03:40:41;;;;;;;4.10;3.40;;;;;;;7.40;100.00;100100.72;5049174;28;20948;-56
2022/11/29 03:43:22;;;;;;;4.20;3.90;;;;;;;7.35;100.00;100100.81;5058972;28;20446;-56
2022/11/29 03:45:59;;;;;;;2.73;2.53;;;;;;;7.31;100.00;100098.28;5045632;28;20984;-56
2022/11/29 03:48:26;;;;;;;3.93;3.63;;;;;;;7.29;100.00;100098.31;5057913;28;20450;-56
2022/11/29 03:51:02;;;;;;;11.77;4.83;;;;;;;7.27;100.00;100097.47;5061620;28;20508;-56
2022/11/29 03:53:43;;;;;;;2.50;1.70;;;;;;;7.28;100.00;100106.25;5063948;28;20450;-56
2022/11/29 03:56:40;;;;;;;3.97;3.80;;;;;;;7.19;100.00;100104.66;5039783;28;20455;-56
2022/11/29 03:59:24;;;;;;;2.67;2.47;;;;;;;7.17;100.00;100105.56;5036871;28;20504;-56
2022/11/29 04:02:10;;;;;;;5.23;2.33;;;;;;;7.13;100.00;100107.41;5057022;28;20976;-56
2022/11/29 04:05:05;;;;;;;2.73;2.53;;;;;;;7.08;100.00;100106.59;5056792;28;20933;-56
2022/11/29 04:08:00;;;;;;;26.33;5.73;;;;;;;7.07;100.00;100099.56;5058695;28;20450;-57
2022/11/29 04:10:55;;;;;;;9.43;1.30;;;;;;;7.01;100.00;100108.50;5049392;28;20442;-56
2022/11/29 04:13:42;;;;;;;2.17;2.00;;;;;;;6.98;100.00;100108.50;5063751;28;20506;-56
2022/11/29 04:16:15;;;;;;;2.53;2.40;;;;;;;6.87;100.00;100099.94;5063797;28;20473;-56
2022/11/29 04:19:05;;;;;;;2.10;2.00;;;;;;;6.83;100.00;100104.38;5061941;28;20450;-56
2022/11/29 04:22:02;;;;;;;3.10;2.70;;;;;;;6.77;100.00;100104.47;5063429;28;20478;-56
2022/11/29 04:24:59;;;;;;;2.00;1.90;;;;;;;6.68;100.00;100115.19;5063528;28;21014;-56
2022/11/29 04:27:37;;;;;;;3.47;3.27;;;;;;;6.68;100.00;100114.31;5063181;28;20446;-55
2022/11/29 04:30:09;;;;;;;3.63;2.20;;;;;;;6.63;100.00;100118.78;5060833;28;21006;-56
2022/11/29 04:33:02;;;;;;;2.83;2.60;;;;;;;6.58;100.00;100110.06;5056606;28;20450;-56
2022/11/29 04:35:49;;;;;;;1.53;1.47;;;;;;;6.56;100.00;100115.38;5056108;28;20478;-56
2022/11/29 04:38:18;;;;;;;1.90;1.80;;;;;;;6.62;100.00;100117.94;5058511;28;20455;-56
2022/11/29 04:41:03;;;;;;;1.67;1.40;;;;;;;6.66;100.00;100116.97;5063573;28;21059;-56
2022/11/29 04:43:44;;;;;;;7.43;2.37;;;;;;;6.92;100.00;100118.34;5063011;28;20456;-55
2022/11/29 04:46:33;;;;;;;1.83;1.73;;;;;;;7.28;100.00;100125.63;5060030;28;20446;-56
2022/11/29 04:49:25;;;;;;;3.97;3.23;;;;;;;7.45;100.00;100129.75;5042497;28;20485;-56
2022/11/29 04:52:10;;;;;;;3.07;2.87;;;;;;;7.26;100.00;100130.06;5055544;28;20457;-56
2022/11/29 04:55:01;;;;;;;2.80;2.63;;;;;;;6.96;100.00;100131.47;5056196;28;21390;-56
2022/11/29 04:57:42;;;;;;;3.07;2.90;;;;;;;6.88;100.00;100130.72;5017864;28;20552;-55
2022/11/29 05:00:21;;;;;;;1.37;1.27;;;;;;;6.87;100.00;100136.03;5056438;28;20489;-56
2022/11/29 05:03:03;;;;;;;9.50;3.30;;;;;;;6.79;100.00;100133.50;5065690;28;20848;-56
2022/11/29 05:05:43;;;;;;;2.40;2.30;;;;;;;6.82;100.00;100139.59;5060779;28;20536;-56
2022/11/29 05:08:25;;;;;;;1.97;1.87;;;;;;;6.94;100.00;100142.94;5062671;28;20940;-56
2022/11/29 05:11:15;;;;;;;2.10;1.73;;;;;;;6.94;100.00;100150.88;5062502;28;20487;-56
2022/11/29 05:13:50;;;;;;;1.43;1.33;;;;;;;6.93;100.00;100150.00;5058744;28;20455;-56
2022/11/29 05:16:48;;;;;;;3.73;2.27;;;;;;;6.93;100.00;100151.78;5062463;28;20451;-56
2022/11/29 05:19:52;;;;;;;5.53;5.30;;;;;;;6.82;100.00;100157.22;5046998;28;20461;-56
2022/11/29 05:22:22;;;;;;;10.53;4.07;;;;;;;6.67;100.00;100153.06;5062616;28;20526;-56
2022/11/29 05:25:12;;;;;;;1.83;0.80;;;;;;;6.72;100.00;100155.66;5056817;28;21005;-56
2022/11/29 05:28:00;;;;;;;4.23;2.60;;;;;;;6.72;100.00;100153.88;5034364;28;20466;-56
2022/11/29 05:31:02;;;;;;;2.70;2.47;;;;;;;6.85;100.00;100162.44;5055443;28;20450;-55
2022/11/29 05:33:32;;;;;;;3.90;3.60;;;;;;;7.22;100.00;100161.88;5053053;28;20468;-55
2022/11/29 05:36:19;;;;;;;3.00;2.40;;;;;;;6.87;100.00;100165.97;5055198;28;21005;-56
2022/11/29 05:39:02;;;;;;;4.20;3.90;;;;;;;6.86;100.00;100164.22;5067069;28;20446;-56
2022/11/29 05:41:47;;;;;;;2.80;2.33;;;;;;;6.72;100.00;100172.38;5060169;28;20489;-55
2022/11/29 05:44:37;;;;;;;2.87;2.60;;;;;;;6.71;100.00;100167.06;5061588;28;20480;-56
2022/11/29 05:47:07;;;;;;;1.63;1.53;;;;;;;6.71;100.00;100169.72;5062427;28;20496;-55
2022/11/29 05:49:40;;;;;;;3.03;2.17;;;;;;;6.72;100.00;100169.72;5059565;28;20894;-55
2022/11/29 05:52:24;;;;;;;3.90;3.60;;;;;;;6.74;100.00;100167.94;5055830;28;20446;-56
2022/11/29 05:55:23;;;;;;;2.50;1.67;;;;;;;6.74;100.00;100172.34;5054430;28;20790;-55
2022/11/29 05:58:18;;;;;;;2.23;2.03;;;;;;;6.51;100.00;100170.03;5061253;28;20525;-56
2022/11/29 06:00:56;;;;;;;3.73;3.40;;;;;;;6.68;100.00;100175.06;5058750;28;20498;-56
2022/11/29 06:03:28;;;;;;;4.40;4.07;;;;;;;6.64;100.00;100184.78;5060584;28;20931;-56
2022/11/29 06:06:14;;;;;;;1.73;1.63;;;;;;;6.67;100.00;100189.16;5065336;28;20491;-56
2022/11/29 06:08:59;;;;;;;4.53;4.20;;;;;;;6.73;100.00;100192.59;5049527;28;20938;-56
2022/11/29 06:11:43;;;;;;;1.57;1.47;;;;;;;6.76;100.00;100199.59;5059151;28;20553;-55
2022/11/29 06:14:32;;;;;;;2.70;2.50;;;;;;;6.92;100.00;100202.88;5059018;28;20449;-56
2022/11/29 06:17:08;;;;;;;2.33;2.23;;;;;;;6.95;100.00;100205.47;5062690;28;20852;-56
2022/11/29 06:19:57;;;;;;;5.07;3.73;;;;;;;6.98;100.00;100208.94;5065749;28;20458;-56
2022/11/29 06:22:42;;;;;;;1.80;1.70;;;;;;;6.98;100.00;100216.84;5065899;28;20446;-55
2022/11/29 06:25:22;;;;;;;4.30;2.47;;;;;;;6.95;100.00;100218.69;5063535;28;20469;-55
2022/11/29 06:28:12;;;;;;;2.87;2.67;;;;;;;6.95;100.00;100213.41;5052928;28;20480;-56
2022/11/29 06:31:02;;;;;;;4.00;3.80;;;;;;;6.97;100.00;100216.88;5065264;28;20448;-56
2022/11/29 06:33:34;;;;;;;5.10;1.43;;;;;;;6.94;100.00;100214.28;5056558;28;21004;-56
2022/11/29 06:36:19;;;;;;;2.47;2.37;;;;;;;7.04;100.00;100222.06;5044182;28;20515;-56
2022/11/29 06:38:46;;;;;;;3.10;2.80;;;;;;;6.96;100.00;100218.66;5058537;28;20966;-56
2022/11/29 06:41:17;;;;;;;2.10;1.90;;;;;;;6.97;100.00;100219.53;5062620;28;20920;-56
2022/11/29 06:43:45;;;;;;;4.17;3.73;;;;;;;7.02;100.00;100221.22;5065344;28;20454;-56
2022/11/29 06:46:23;;;;;;;3.30;3.00;;;;;;;7.01;100.00;100214.19;5062225;28;20446;-56
2022/11/29 06:48:56;;;;;;;1.60;1.50;;;;;;;7.05;100.00;100225.59;5058307;28;20861;-56
2022/11/29 06:51:56;;;;;;;3.60;3.40;;;;;;;7.12;100.00;100219.28;5058772;28;20454;-56
2022/11/29 06:54:47;;;;;;;2.57;2.37;;;;;;;7.07;100.00;100224.66;5052739;28;20474;-56
2022/11/29 06:57:51;;;;;;;2.80;2.00;;;;;;;7.08;100.00;100230.81;5064227;28;20484;-56
2022/11/29 07:00:31;;;;;;;2.50;2.40;;;;;;;7.18;100.00;100232.41;5064911;28;20540;-56
2022/11/29 07:03:10;;;;;;;1.80;1.70;;;;;;;7.16;100.00;100238.63;5064968;28;20926;-56
2022/11/29 07:05:38;;;;;;;3.23;3.03;;;;;;;7.13;100.00;100247.50;5060953;28;20472;-56
2022/11/29 07:08:10;;;;;;;5.63;3.50;;;;;;;7.17;100.00;100243.03;5058018;28;20515;-56
2022/11/29 07:10:39;;;;;;;4.50;4.20;;;;;;;7.18;100.00;100242.13;5061398;28;20901;-56
2022/11/29 07:13:06;;;;;;;3.97;3.30;;;;;;;7.19;100.00;100250.03;5064872;28;20450;-56
2022/11/29 07:15:33;;;;;;;2.90;2.70;;;;;;;7.29;100.00;100241.06;5061732;28;20465;-56
2022/11/29 07:18:17;;;;;;;4.40;4.00;;;;;;;7.26;100.00;100251.66;5057601;28;20449;-56
2022/11/29 07:20:58;;;;;;;3.00;2.80;;;;;;;7.29;100.00;100254.28;5058129;28;20490;-56
2022/11/29 07:23:32;;;;;;;3.50;2.50;;;;;;;7.36;100.00;100253.28;5062613;28;20500;-56
2022/11/29 07:26:23;;;;;;;3.83;3.63;;;;;;;7.36;100.00;100258.56;5064811;28;20470;-56
2022/11/29 07:28:52;;;;;;;13.67;3.87;;;;;;;7.36;100.00;100262.97;5064419;28;20507;-55
2022/11/29 07:31:47;;;;;;;2.27;2.07;;;;;;;7.42;100.00;100260.25;5064292;28;20455;-55
2022/11/29 07:34:59;;;;;;;2.97;2.73;;;;;;;7.45;100.00;100268.13;5064167;28;20491;-56
2022/11/29 07:38:19;;;;;;;5.40;2.33;;;;;;;7.46;100.00;100269.00;5023622;28;20456;-55
2022/11/29 07:40:57;;;;;;;3.50;3.37;;;;;;;7.48;100.00;100272.47;4995395;28;20488;-56
2022/11/29 07:43:39;;;;;;;2.10;1.30;;;;;;;7.42;100.00;100273.47;5050848;28;20549;-56
2022/11/29 07:46:05;;;;;;;4.27;3.93;;;;;;;7.34;100.00;100268.28;5046452;28;20476;-56
2022/11/29 07:48:32;;;;;;;1.83;1.73;;;;;;;7.46;100.00;100275.16;5057939;28;20451;-56
2022/11/29 07:50:59;;;;;;;3.03;2.83;;;;;;;7.43;100.00;100281.38;5062517;28;20544;-55
2022/11/29 07:53:26;;;;;;;4.27;2.80;;;;;;;7.48;100.00;100273.34;5064213;28;20461;-56
2022/11/29 07:55:52;;;;;;;3.67;3.37;;;;;;;7.47;100.00;100276.03;5050470;28;20865;-56
2022/11/29 07:58:19;;;;;;;4.13;2.67;;;;;;;7.44;100.00;100276.97;5063757;28;20753;-55
2022/11/29 08:00:46;;;;;;;2.97;2.73;;;;;;;7.51;100.00;100283.88;5060418;28;20796;-56
2022/11/29 08:03:13;;;;;;;2.30;2.10;;;;;;;7.62;100.00;100279.28;5060754;28;20451;-56
2022/11/29 08:05:45;;;;;;;2.57;2.47;;;;;;;7.64;100.00;100281.91;5060900;28;20510;-55
2022/11/29 08:08:12;;;;;;;2.40;2.20;;;;;;;7.75;100.00;100282.59;5056750;28;20450;-56
2022/11/29 08:10:38;;;;;;;2.30;2.20;;;;;;;7.74;100.00;100278.22;5059130;28;20508;-55
2022/11/29 08:13:05;;;;;;;2.70;2.50;;;;;;;7.75;100.00;100287.91;5063803;28;20454;-55
2022/11/29 08:15:31;;;;;;;2.10;2.00;;;;;;;7.76;100.00;100283.47;5062015;28;20474;-55
2022/11/29 08:17:58;;;;;;;2.53;2.33;;;;;;;7.80;100.00;100293.97;5056938;28;20875;-55
2022/11/29 08:20:24;;;;;;;3.63;2.20;;;;;;;7.83;100.00;100290.44;5058430;28;20486;-55
2022/11/29 08:22:55;;;;;;;4.37;4.17;;;;;;;7.83;100.00;100285.13;5063268;28;20490;-55
2022/11/29 08:25:22;;;;;;;3.57;3.37;;;;;;;7.88;100.00;100294.72;5063542;28;20994;-55
2022/11/29 08:27:50;;;;;;;1.60;1.50;;;;;;;7.95;100.00;100296.38;5054700;28;20454;-56
2022/11/29 08:30:17;;;;;;;4.10;3.80;;;;;;;7.90;100.00;100299.97;5057312;28;20455;-55
2022/11/29 08:32:44;;;;;;;3.50;3.30;;;;;;;7.98;100.00;100298.09;5044681;28;20523;-55
2022/11/29 08:35:18;;;;;;;4.50;2.27;;;;;;;7.97;100.00;100299.00;5063998;28;20489;-56
2022/11/29 08:37:45;;;;;;;2.83;2.73;;;;;;;8.01;100.00;100306.84;5058284;28;20457;-56
2022/11/29 08:40:12;;;;;;;4.00;3.60;;;;;;;7.97;100.00;100302.50;5068444;28;20453;-55
2022/11/29 08:42:39;;;;;;;4.83;3.07;;;;;;;7.90;100.00;100303.50;5058634;28;20454;-56
2022/11/29 08:45:06;;;;;;;3.47;3.27;;;;;;;7.92;100.00;100308.75;5056420;28;20471;-56
2022/11/29 08:47:35;;;;;;;3.17;2.97;;;;;;;7.87;100.00;100306.22;5060890;28;20451;-55
2022/11/29 08:50:03;;;;;;;4.13;3.47;;;;;;;7.91;100.00;100305.25;5052401;28;20450;-56
2022/11/29 08:55:18;;;;;;;3.60;2.70;;;;;;;8.01;100.00;100319.19;5063420;28;20551;-56
2022/11/29 08:57:46;;;;;;;3.00;2.47;;;;;;;8.06;100.00;100325.28;5061626;28;20549;-56
2022/11/29 09:00:13;;;;;;;3.50;3.30;;;;;;;8.06;100.00;100322.63;5055911;28;20449;-56
2022/11/29 09:02:39;;;;;;;3.20;3.00;;;;;;;8.10;100.00;100320.81;5064766;28;20813;-56
2022/11/29 09:05:07;;;;;;;2.43;2.27;;;;;;;8.14;100.00;100328.66;5055946;28;21047;-56
2022/11/29 09:07:34;;;;;;;1.97;1.87;;;;;;;8.15;100.00;100329.53;5057296;28;20833;-56
2022/11/29 09:10:04;;;;;;;3.10;2.90;;;;;;;8.17;100.00;100333.03;5062970;28;20455;-56
2022/11/29 09:12:31;;;;;;;2.37;2.27;;;;;;;8.19;100.00;100333.88;5062305;28;20797;-56
2022/11/29 09:14:58;;;;;;;2.73;2.63;;;;;;;8.14;100.00;100336.63;5055649;28;20454;-56
2022/11/29 09:17:24;;;;;;;1.80;1.70;;;;;;;8.20;100.00;100343.56;5043910;28;20517;-56
2022/11/29 09:19:50;;;;;;;4.67;4.37;;;;;;;8.33;100.00;100342.44;5055194;28;20499;-56
2022/11/29 09:22:17;;;;;;;1.47;1.40;;;;;;;8.27;100.00;100340.78;5056590;28;20496;-56
2022/11/29 09:24:45;;;;;;;4.53;4.20;;;;;;;8.31;100.00;100349.53;5062511;28;20474;-56
2022/11/29 09:27:11;;;;;;;3.70;3.43;;;;;;;8.30;100.00;100353.97;5049276;28;20816;-56
2022/11/29 09:29:38;;;;;;;2.07;1.97;;;;;;;8.35;100.00;100353.03;5055920;28;20452;-56
2022/11/29 09:32:04;;;;;;;4.00;2.60;;;;;;;8.32;100.00;100353.94;5042563;28;20528;-55
2022/11/29 09:34:31;;;;;;;1.83;1.73;;;;;;;8.27;100.00;100346.09;5042192;28;20480;-56
2022/11/29 09:36:58;;;;;;;4.97;4.47;;;;;;;8.33;100.00;100350.38;5056034;28;20530;-56
2022/11/29 09:39:25;;;;;;;4.87;4.57;;;;;;;8.34;100.00;100357.47;5068673;28;20840;-56
2022/11/29 09:42:16;;;;;;;7.40;6.53;;;;;;;8.29;100.00;100356.66;5055386;28;20517;-56
2022/11/29 09:45:05;;;;;;;15.23;6.40;;;;;;;8.34;100.00;100368.03;5049375;28;20466;-56
2022/11/29 09:47:56;;;;;;;9.33;3.40;;;;;;;8.38;100.00;100369.75;5062619;28;20455;-56
2022/11/29 09:50:41;;;;;;;8.60;5.30;;;;;;;8.34;100.00;100368.03;5062247;28;20534;-56
2022/11/29 09:53:33;;;;;;;5.03;4.57;;;;;;;8.28;100.00;100362.84;5049362;28;20449;-56
2022/11/29 09:56:20;;;;;;;4.17;3.97;;;;;;;8.32;100.00;100370.69;5039461;28;20843;-56
2022/11/29 09:58:55;;;;;;;4.17;3.13;;;;;;;8.32;100.00;100375.13;5055760;28;20838;-56
2022/11/29 10:01:27;;;;;;;6.70;5.33;;;;;;;8.40;100.00;100365.31;5055350;28;20493;-56
2022/11/29 10:04:01;;;;;;;5.70;3.87;;;;;;;8.38;100.00;100367.13;5051046;28;20451;-56
2022/11/29 10:06:35;;;;;;;4.50;4.23;;;;;;;8.43;100.00;100369.66;5048438;28;20476;-56
2022/11/29 10:09:29;;;;;;;4.53;4.10;;;;;;;8.40;100.00;100372.38;5058078;28;21009;-56
2022/11/29 10:12:11;;;;;;;15.03;4.90;;;;;;;8.47;100.00;100369.56;5045741;28;20512;-56
2022/11/29 10:14:40;;;;;;;5.23;3.97;;;;;;;8.48;100.00;100371.31;5055233;28;20515;-56
2022/11/29 10:17:22;;;;;;;4.33;3.00;;;;;;;8.47;100.00;100369.56;5047964;28;20451;-56
2022/11/29 10:19:57;;;;;;;3.53;3.23;;;;;;;8.50;100.00;100377.47;5061982;28;20509;-56
2022/11/29 10:22:35;;;;;;;4.73;3.60;;;;;;;8.55;100.00;100372.97;5062002;28;20528;-56
2022/11/29 10:25:04;;;;;;;4.70;2.87;;;;;;;8.58;100.00;100367.59;5057932;28;21316;-56
2022/11/29 10:27:31;;;;;;;3.50;3.23;;;;;;;8.62;100.00;100379.00;5038859;28;20462;-56
2022/11/29 10:29:59;;;;;;;5.87;4.90;;;;;;;8.63;100.00;100369.28;5058268;28;20454;-56
2022/11/29 10:32:30;;;;;;;6.20;3.17;;;;;;;8.79;100.00;100374.28;5054993;28;20445;-56
2022/11/29 10:34:59;;;;;;;5.93;4.33;;;;;;;8.73;100.00;100368.19;5047428;28;20901;-56
2022/11/29 10:37:31;;;;;;;7.33;6.70;;;;;;;8.77;100.00;100369.88;5050667;28;20449;-56
2022/11/29 10:40:08;;;;;;;3.60;3.50;;;;;;;8.74;100.00;100373.47;5056884;28;20446;-56
2022/11/29 10:42:53;;;;;;;5.60;4.80;;;;;;;8.79;100.00;100376.91;5061941;28;21025;-56
2022/11/29 10:45:49;;;;;;;6.77;4.27;;;;;;;8.86;100.00;100375.00;5062290;28;20466;-56
2022/11/29 10:48:19;;;;;;;2.70;2.00;;;;;;;9.06;100.00;100378.13;5060410;28;20474;-55
2022/11/29 10:50:48;;;;;;;4.50;3.37;;;;;;;8.93;100.00;100381.94;5063655;28;20819;-55
2022/11/29 10:53:18;;;;;;;9.47;2.50;;;;;;;9.24;100.00;100383.94;5065411;28;20453;-55
2022/11/29 10:55:52;;;;;;;27.40;3.67;;;;;;;9.08;100.00;100380.75;5051881;28;20964;-55
2022/11/29 10:58:24;;;;;;;2.67;2.47;;;;;;;9.01;100.00;100382.63;5065372;28;20450;-55
2022/11/29 11:00:59;;;;;;;3.07;2.87;;;;;;;9.01;100.00;100371.16;5060851;28;20484;-55
2022/11/29 11:03:34;;;;;;;3.23;2.93;;;;;;;9.09;100.00;100374.53;5064808;28;20945;-55
2022/11/29 11:06:09;;;;;;;4.23;2.70;;;;;;;8.97;100.00;100370.38;5064717;28;20873;-55
2022/11/29 11:08:37;;;;;;;3.43;3.17;;;;;;;9.06;100.00;100375.47;5064375;28;20454;-55
2022/11/29 11:11:06;;;;;;;3.40;3.10;;;;;;;9.07;100.00;100377.22;5064963;28;20456;-55
2022/11/29 11:13:33;;;;;;;3.37;2.70;;;;;;;9.08;100.00;100375.44;5058924;28;20453;-55
2022/11/29 11:16:08;;;;;;;3.33;2.47;;;;;;;9.19;100.00;100369.00;5056768;28;20478;-55
2022/11/29 11:18:36;;;;;;;3.77;2.53;;;;;;;9.18;100.00;100380.53;5062720;28;20446;-55
2022/11/29 11:21:07;;;;;;;3.40;1.93;;;;;;;9.22;100.00;100381.31;5064748;28;20454;-55
2022/11/29 11:23:36;;;;;;;6.40;3.13;;;;;;;9.50;100.00;100381.59;5060905;28;20449;-55
2022/11/29 11:26:12;;;;;;;7.80;2.00;;;;;;;9.28;100.00;100383.84;5057543;28;20497;-55
2022/11/29 11:28:49;;;;;;;2.83;2.63;;;;;;;9.32;100.00;100381.97;5060348;28;20450;-55
2022/11/29 11:31:34;;;;;;;2.70;2.50;;;;;;;9.32;100.00;100376.66;5049277;28;20454;-55
2022/11/29 11:34:22;;;;;;;7.30;4.40;;;;;;;9.38;100.00;100382.72;5059600;28;20495;-55
2022/11/29 11:36:48;;;;;;;2.13;2.00;;;;;;;9.39;100.00;100384.47;5062835;28;20947;-55
2022/11/29 11:39:19;;;;;;;3.07;2.87;;;;;;;9.46;100.00;100383.44;5057334;28;20822;-55
2022/11/29 11:44:48;;;;;;;2.33;2.23;;;;;;;9.41;100.00;100387.97;5048119;28;20466;-55
2022/11/29 11:47:19;;;;;;;3.30;3.00;;;;;;;9.35;100.00;100387.25;5057794;28;20456;-55
2022/11/29 11:49:52;;;;;;;2.67;2.50;;;;;;;9.29;100.00;100388.22;5058256;28;20816;-55
2022/11/29 11:52:23;;;;;;;3.70;3.47;;;;;;;9.26;100.00;100393.59;5064430;28;20504;-55
2022/11/29 11:54:54;;;;;;;2.43;2.33;;;;;;;9.28;100.00;100385.63;5062218;28;20827;-55
2022/11/29 11:57:22;;;;;;;4.60;4.20;;;;;;;9.37;100.00;100396.03;5046953;28;20898;-55
2022/11/29 11:59:50;;;;;;;31.83;3.47;;;;;;;9.36;100.00;100388.97;5057393;28;20458;-55
2022/11/29 12:02:37;;;;;;;7.83;2.57;;;;;;;9.35;100.00;100390.75;5065910;28;20489;-55
2022/11/29 12:05:12;;;;;;;2.40;2.30;;;;;;;9.35;100.00;100393.41;5057155;28;20597;-55
2022/11/29 12:07:55;;;;;;;5.23;3.33;;;;;;;9.31;100.00;100390.84;5057173;28;20451;-55
2022/11/29 12:10:39;;;;;;;4.93;3.60;;;;;;;9.31;100.00;100389.06;5052625;28;20823;-55
2022/11/29 12:13:19;;;;;;;5.20;4.70;;;;;;;9.28;100.00;100391.78;5057004;28;20537;-55
2022/11/29 12:15:48;;;;;;;9.03;5.10;;;;;;;9.30;100.00;100395.28;5057208;28;20623;-54
2022/11/29 12:18:25;;;;;;;4.27;3.90;;;;;;;9.28;100.00;100382.97;5044265;28;20453;-56